createdAt,value
2018-07-06T00:00:19.442Z,81.45
2018-07-06T00:02:58.202Z,81.22
2018-07-06T00:05:36.858Z,82.20
2018-07-06T00:08:15.663Z,82.65
2018-07-06T00:10:54.385Z,83.19
2018-07-06T00:13:33.238Z,83.90
2018-07-06T00:16:12.264Z,83.19
2018-07-06T00:21:41.215Z,83.50
2018-07-06T00:24:19.990Z,83.22
2018-07-06T00:26:58.531Z,83.53
2018-07-06T00:29:37.343Z,82.87
2018-07-06T00:32:16.171Z,82.82
2018-07-06T00:34:54.738Z,82.10
2018-07-06T00:37:33.233Z,81.44
2018-07-06T00:40:11.891Z,80.84
2018-07-06T00:42:50.549Z,81.24
2018-07-06T00:45:29.158Z,80.94
2018-07-06T00:48:07.710Z,81.78
2018-07-06T00:50:46.298Z,81.56
2018-07-06T00:53:25.282Z,82.36
2018-07-06T00:56:03.953Z,81.51
2018-07-06T00:58:42.672Z,81.11
2018-07-06T01:01:23.261Z,82.36
2018-07-06T01:04:02.174Z,82.20
2018-07-06T01:06:40.747Z,82.43
2018-07-06T01:09:19.290Z,82.23
2018-07-06T01:12:02.506Z,82.68
2018-07-06T01:14:41.089Z,82.73
2018-07-06T01:17:19.567Z,84.24
2018-07-06T01:19:58.275Z,83.58
2018-07-06T01:22:36.912Z,85.06
2018-07-06T01:25:15.556Z,85.28
2018-07-06T01:27:54.210Z,85.16
2018-07-06T01:30:32.873Z,84.98
2018-07-06T01:33:12.095Z,84.79
2018-07-06T01:35:50.926Z,84.76
2018-07-06T01:38:29.590Z,84.49
2018-07-06T01:41:10.114Z,84.48
2018-07-06T01:43:48.786Z,85.27
2018-07-06T01:46:27.418Z,85.03
2018-07-06T01:49:06.295Z,84.57
2018-07-06T01:51:44.830Z,84.12
2018-07-06T01:54:23.575Z,84.96
2018-07-06T01:57:02.372Z,85.35
2018-07-06T01:59:41.319Z,85.35
2018-07-06T02:02:20.015Z,86.34
2018-07-06T02:04:58.698Z,86.01
2018-07-06T02:07:37.510Z,85.68
2018-07-06T02:10:16.267Z,86.02
2018-07-06T02:12:55.050Z,86.39
2018-07-06T02:15:33.769Z,86.07
2018-07-06T02:18:12.575Z,86.06
2018-07-06T02:20:51.124Z,86.05
2018-07-06T02:23:29.778Z,86.20
2018-07-06T02:26:08.525Z,86.39
2018-07-06T02:28:47.149Z,86.39
2018-07-06T02:31:25.832Z,86.50
2018-07-06T02:34:04.641Z,86.17
2018-07-06T02:36:43.321Z,86.28
2018-07-06T02:39:22.020Z,85.96
2018-07-06T02:42:00.870Z,85.95
2018-07-06T02:44:39.642Z,86.03
2018-07-06T02:47:18.264Z,86.23
2018-07-06T02:49:56.942Z,85.79
2018-07-06T02:52:35.406Z,85.62
2018-07-06T02:55:14.168Z,84.64
2018-07-06T02:57:52.739Z,84.36
2018-07-06T03:00:31.519Z,84.94
2018-07-06T03:03:10.187Z,84.48
2018-07-06T03:05:49.019Z,83.87
2018-07-06T03:08:27.865Z,84.10
2018-07-06T03:11:06.642Z,83.32
2018-07-06T03:13:45.343Z,83.93
2018-07-06T03:16:23.922Z,83.86
2018-07-06T03:19:03.056Z,84.18
2018-07-06T03:21:42.184Z,82.08
2018-07-06T03:24:20.840Z,80.06
2018-07-06T03:26:59.528Z,79.83
2018-07-06T03:29:38.479Z,79.41
2018-07-06T03:32:17.159Z,78.91
2018-07-06T03:34:55.864Z,80.16
2018-07-06T03:37:34.534Z,80.50
2018-07-06T03:40:13.399Z,81.27
2018-07-06T03:42:52.318Z,81.81
2018-07-06T03:45:30.999Z,80.69
2018-07-06T03:48:09.772Z,81.74
2018-07-06T03:50:48.529Z,81.78
2018-07-06T03:53:27.167Z,81.23
2018-07-06T03:56:05.622Z,80.92
2018-07-06T03:58:44.244Z,81.95
2018-07-06T04:01:23.009Z,80.62
2018-07-06T04:04:01.730Z,80.36
2018-07-06T04:06:40.502Z,79.87
2018-07-06T04:09:19.534Z,79.71
2018-07-06T04:11:58.000Z,79.53
2018-07-06T04:14:36.866Z,80.53
2018-07-06T04:17:15.576Z,81.23
2018-07-06T04:19:54.344Z,80.37
2018-07-06T04:22:32.991Z,80.98
2018-07-06T04:25:11.735Z,80.24
2018-07-06T04:27:50.631Z,80.88
2018-07-06T04:30:29.388Z,80.40
2018-07-06T04:33:08.036Z,81.19
2018-07-06T04:35:46.651Z,79.59
2018-07-06T04:38:25.492Z,79.91
2018-07-06T04:41:04.204Z,78.65
2018-07-06T04:43:42.903Z,79.68
2018-07-06T04:46:23.239Z,78.78
2018-07-06T04:49:02.043Z,79.20
2018-07-06T04:51:40.622Z,77.70
2018-07-06T04:54:19.530Z,78.51
2018-07-06T04:56:58.140Z,78.68
2018-07-06T04:59:36.892Z,78.57
2018-07-06T05:02:15.731Z,77.49
2018-07-06T05:04:54.613Z,77.63
2018-07-06T05:07:33.439Z,78.41
2018-07-06T05:10:12.072Z,77.75
2018-07-06T05:12:50.659Z,77.22
2018-07-06T05:15:29.207Z,77.95
2018-07-06T05:18:07.911Z,76.95
2018-07-06T05:20:46.595Z,77.46
2018-07-06T05:23:25.217Z,77.16
2018-07-06T05:26:03.953Z,77.43
2018-07-06T05:28:42.708Z,77.22
2018-07-06T05:31:21.502Z,77.42
2018-07-06T05:34:00.196Z,76.24
2018-07-06T05:36:38.769Z,76.87
2018-07-06T05:39:17.531Z,76.94
2018-07-06T05:41:56.353Z,77.17
2018-07-06T05:44:35.107Z,76.98
2018-07-06T05:47:13.737Z,76.39
2018-07-06T05:49:52.314Z,77.19
2018-07-06T05:52:30.982Z,77.49
2018-07-06T05:55:09.859Z,76.91
2018-07-06T05:57:48.610Z,77.31
2018-07-06T06:00:27.161Z,77.42
2018-07-06T06:03:05.753Z,77.48
2018-07-06T06:05:45.171Z,77.43
2018-07-06T06:08:11.474Z,77.37
2018-07-06T06:10:38.805Z,76.13
2018-07-06T06:13:06.130Z,75.80
2018-07-06T06:15:33.405Z,75.81
2018-07-06T06:18:02.823Z,75.68
2018-07-06T06:20:30.098Z,75.76
2018-07-06T06:22:57.373Z,75.70
2018-07-06T06:25:24.778Z,74.75
2018-07-06T06:27:52.055Z,74.90
2018-07-06T06:30:19.379Z,74.01
2018-07-06T06:32:46.695Z,72.76
2018-07-06T06:35:14.007Z,70.99
2018-07-06T06:37:41.565Z,71.15
2018-07-06T06:40:08.858Z,69.68
2018-07-06T06:42:36.933Z,70.42
2018-07-06T06:45:04.229Z,70.91
2018-07-06T06:47:31.518Z,69.30
2018-07-06T06:49:58.815Z,68.76
2018-07-06T06:52:26.075Z,67.25
2018-07-06T06:54:53.432Z,67.18
2018-07-06T06:57:20.681Z,67.02
2018-07-06T06:59:47.972Z,66.76
2018-07-06T07:02:15.232Z,66.39
2018-07-06T07:04:44.266Z,65.47
2018-07-06T07:07:11.589Z,65.07
2018-07-06T07:09:40.179Z,63.38
2018-07-06T07:12:08.747Z,63.78
2018-07-06T07:14:36.360Z,63.81
2018-07-06T07:17:03.686Z,63.64
2018-07-06T07:19:31.006Z,64.59
2018-07-06T07:21:58.901Z,63.65
2018-07-06T07:24:26.316Z,61.95
2018-07-06T07:26:53.609Z,63.60
2018-07-06T07:29:20.932Z,62.57
2018-07-06T07:31:48.174Z,63.12
2018-07-06T07:34:15.469Z,61.60
2018-07-06T07:36:42.753Z,62.42
2018-07-06T07:39:09.998Z,61.65
2018-07-06T07:41:37.261Z,62.90
2018-07-06T07:44:04.796Z,62.91
2018-07-06T07:46:32.154Z,62.33
2018-07-06T07:48:59.366Z,61.27
2018-07-06T07:52:08.142Z,60.56
2018-07-06T07:54:52.221Z,60.57
2018-07-06T07:57:19.738Z,60.50
2018-07-06T07:59:47.262Z,58.87
2018-07-06T08:02:15.058Z,58.53
2018-07-06T08:04:42.403Z,58.89
2018-07-06T08:07:09.733Z,57.85
2018-07-06T08:09:37.035Z,58.33
2018-07-06T08:12:04.811Z,57.79
2018-07-06T08:14:32.192Z,56.88
2018-07-06T08:16:59.574Z,54.20
2018-07-06T08:19:26.839Z,52.86
2018-07-06T08:21:54.673Z,51.90
2018-07-06T08:24:22.068Z,51.52
2018-07-06T08:26:49.399Z,52.38
2018-07-06T08:29:17.570Z,53.09
2018-07-06T08:31:45.168Z,53.91
2018-07-06T08:34:23.736Z,52.25
2018-07-06T08:37:33.590Z,52.39
2018-07-06T08:40:00.839Z,52.30
2018-07-06T08:42:29.924Z,53.62
2018-07-06T08:44:58.067Z,53.80
2018-07-06T08:47:25.366Z,54.72
2018-07-06T08:49:53.248Z,52.48
2018-07-06T08:52:20.531Z,53.46
2018-07-06T08:54:48.883Z,51.82
2018-07-06T08:57:16.139Z,52.28
2018-07-06T08:59:43.363Z,50.96
2018-07-06T09:02:10.823Z,50.25
2018-07-06T09:04:38.106Z,50.06
2018-07-06T09:07:05.350Z,50.30
2018-07-06T09:09:32.611Z,49.98
2018-07-06T09:11:59.880Z,47.83
2018-07-06T09:14:27.189Z,46.11
2018-07-06T09:16:54.459Z,45.33
2018-07-06T09:19:21.793Z,45.95
2018-07-06T09:21:49.522Z,45.83
2018-07-06T09:24:16.972Z,43.35
2018-07-06T09:26:44.207Z,41.22
2018-07-06T09:29:11.771Z,43.02
2018-07-06T09:31:39.004Z,42.72
2018-07-06T09:34:06.535Z,43.65
2018-07-06T09:36:33.783Z,43.01
2018-07-06T09:39:01.046Z,41.08
2018-07-06T09:41:28.273Z,40.33
2018-07-06T09:43:55.536Z,40.05
2018-07-06T09:46:23.904Z,39.83
2018-07-06T09:48:51.146Z,40.28
2018-07-06T09:51:18.374Z,41.78
2018-07-06T09:53:45.637Z,43.39
2018-07-06T09:56:12.870Z,39.48
2018-07-06T09:58:40.170Z,40.37
2018-07-06T10:01:07.438Z,41.97
2018-07-06T10:03:34.669Z,42.33
2018-07-06T10:06:01.923Z,41.98
2018-07-06T10:08:29.235Z,42.69
2018-07-06T10:10:56.591Z,42.32
2018-07-06T10:13:23.874Z,40.74
2018-07-06T10:15:51.115Z,43.17
2018-07-06T10:18:18.397Z,44.50
2018-07-06T10:20:45.656Z,43.44
2018-07-06T10:23:12.946Z,42.71
2018-07-06T10:25:40.213Z,43.12
2018-07-06T10:28:18.315Z,43.94
2018-07-06T10:31:22.932Z,44.36
2018-07-06T10:33:50.263Z,43.75
2018-07-06T10:36:17.475Z,44.60
2018-07-06T10:38:44.699Z,42.81
2018-07-06T10:41:11.982Z,44.09
2018-07-06T10:43:39.198Z,43.43
2018-07-06T10:46:06.536Z,42.26
2018-07-06T10:48:33.760Z,43.08
2018-07-06T10:51:01.021Z,43.37
2018-07-06T10:53:28.238Z,44.71
2018-07-06T10:55:55.507Z,40.30
2018-07-06T10:58:22.874Z,38.51
2018-07-06T11:00:50.383Z,38.99
2018-07-06T11:03:17.642Z,40.26
2018-07-06T11:05:44.958Z,40.61
2018-07-06T11:08:12.262Z,40.49
2018-07-06T11:10:39.522Z,40.93
2018-07-06T11:13:06.789Z,40.94
2018-07-06T11:15:34.055Z,40.08
2018-07-06T11:18:03.662Z,41.12
2018-07-06T11:20:30.925Z,39.53
2018-07-06T11:22:58.172Z,39.14
2018-07-06T11:25:25.479Z,38.76
2018-07-06T11:27:52.781Z,39.96
2018-07-06T11:30:20.024Z,39.54
2018-07-06T11:32:47.272Z,40.18
2018-07-06T11:35:14.504Z,38.91
2018-07-06T11:37:41.766Z,39.07
2018-07-06T11:40:08.987Z,39.29
2018-07-06T11:42:36.231Z,38.51
2018-07-06T11:45:03.605Z,37.94
2018-07-06T11:47:30.787Z,41.00
2018-07-06T11:49:58.014Z,40.89
2018-07-06T11:52:25.303Z,39.45
2018-07-06T11:54:52.603Z,38.34
2018-07-06T11:57:19.850Z,39.08
2018-07-06T11:59:47.101Z,41.60
2018-07-06T12:02:14.379Z,42.83
2018-07-06T12:04:41.588Z,43.52
2018-07-06T12:07:08.859Z,43.38
2018-07-06T12:09:49.341Z,40.90
2018-07-06T12:12:16.641Z,40.01
2018-07-06T12:14:43.902Z,38.88
2018-07-06T12:17:11.167Z,40.13
2018-07-06T12:19:38.464Z,42.30
2018-07-06T12:22:05.799Z,42.65
2018-07-06T12:24:33.074Z,40.99
2018-07-06T12:27:00.355Z,41.17
2018-07-06T12:29:27.647Z,41.54
2018-07-06T12:31:54.897Z,40.62
2018-07-06T12:34:22.172Z,39.82
2018-07-06T12:36:49.427Z,39.54
2018-07-06T12:39:16.699Z,40.97
2018-07-06T12:41:43.987Z,39.66
2018-07-06T12:44:11.255Z,39.42
2018-07-06T12:46:38.470Z,38.08
2018-07-06T12:49:05.722Z,38.30
2018-07-06T12:51:32.964Z,37.58
2018-07-06T12:54:00.255Z,36.95
2018-07-06T12:56:27.515Z,36.99
2018-07-06T12:58:54.983Z,37.53
2018-07-06T13:01:22.237Z,37.38
2018-07-06T13:03:49.514Z,38.31
2018-07-06T13:06:16.875Z,38.01
2018-07-06T13:08:44.223Z,38.86
2018-07-06T13:11:12.196Z,38.66
2018-07-06T13:13:40.168Z,38.18
2018-07-06T13:16:07.609Z,37.83
2018-07-06T13:18:34.982Z,36.91
2018-07-06T13:21:02.339Z,37.20
2018-07-06T13:23:29.635Z,37.65
2018-07-06T13:25:57.276Z,37.50
2018-07-06T13:28:24.551Z,37.77
2018-07-06T13:30:51.847Z,36.44
2018-07-06T13:33:19.077Z,37.35
2018-07-06T13:35:46.462Z,37.30
2018-07-06T13:38:16.682Z,36.58
2018-07-06T13:40:43.996Z,35.67
2018-07-06T13:43:11.243Z,35.63
2018-07-06T13:45:38.513Z,37.72
2018-07-06T13:48:05.808Z,38.58
2018-07-06T13:50:33.427Z,37.94
2018-07-06T13:53:00.865Z,36.88
2018-07-06T13:55:28.095Z,36.88
2018-07-06T13:57:55.384Z,37.25
2018-07-06T14:00:22.746Z,36.64
2018-07-06T14:02:50.088Z,36.79
2018-07-06T14:05:17.361Z,37.87
2018-07-06T14:07:48.515Z,37.54
2018-07-06T14:10:16.008Z,37.86
2018-07-06T14:12:43.599Z,38.16
2018-07-06T14:15:11.106Z,38.95
2018-07-06T14:17:38.603Z,39.05
2018-07-06T14:20:06.328Z,39.05
2018-07-06T14:22:33.820Z,40.25
2018-07-06T14:25:01.257Z,38.38
2018-07-06T14:27:28.763Z,38.22
2018-07-06T14:29:56.430Z,38.88
2018-07-06T14:32:24.698Z,38.45
2018-07-06T14:34:52.471Z,38.92
2018-07-06T14:37:19.934Z,39.31
2018-07-06T14:39:47.489Z,38.84
2018-07-06T14:42:14.743Z,39.20
2018-07-06T14:44:42.040Z,39.49
2018-07-06T14:47:09.332Z,39.29
2018-07-06T14:49:37.055Z,40.23
2018-07-06T14:52:04.336Z,39.55
2018-07-06T14:54:31.598Z,39.68
2018-07-06T14:56:58.876Z,39.36
2018-07-06T14:59:26.206Z,39.48
2018-07-06T15:01:53.520Z,39.74
2018-07-06T15:04:20.774Z,39.03
2018-07-06T15:06:48.176Z,39.58
2018-07-06T15:09:15.352Z,38.94
2018-07-06T15:11:42.652Z,39.23
2018-07-06T15:14:09.912Z,40.08
2018-07-06T15:16:37.192Z,39.18
2018-07-06T15:19:04.803Z,40.11
2018-07-06T15:21:32.085Z,40.21
2018-07-06T15:23:59.326Z,40.53
2018-07-06T15:26:26.616Z,39.89
2018-07-06T15:28:53.882Z,39.60
2018-07-06T15:31:21.157Z,39.38
2018-07-06T15:33:48.610Z,39.22
2018-07-06T15:36:16.120Z,39.22
2018-07-06T15:38:43.584Z,40.23
2018-07-06T15:41:10.985Z,41.29
2018-07-06T15:43:38.404Z,41.47
2018-07-06T15:46:05.944Z,40.88
2018-07-06T15:48:33.827Z,41.09
2018-07-06T15:51:01.288Z,40.79
2018-07-06T15:53:28.859Z,41.18
2018-07-06T15:55:56.357Z,40.88
2018-07-06T15:58:23.828Z,41.05
2018-07-06T16:00:51.344Z,41.09
2018-07-06T16:03:18.780Z,41.79
2018-07-06T16:05:46.339Z,41.60
2018-07-06T16:08:13.807Z,41.88
2018-07-06T16:10:41.226Z,40.95
2018-07-06T16:13:08.497Z,42.27
2018-07-06T16:15:35.739Z,42.27
2018-07-06T16:18:04.079Z,42.52
2018-07-06T16:20:31.310Z,42.44
2018-07-06T16:22:58.560Z,41.78
2018-07-06T16:25:25.829Z,41.69
2018-07-06T16:27:53.421Z,41.27
2018-07-06T16:30:20.642Z,41.23
2018-07-06T16:32:48.024Z,41.42
2018-07-06T16:35:15.235Z,42.11
2018-07-06T16:37:42.452Z,42.65
2018-07-06T16:40:09.758Z,42.42
2018-07-06T16:42:36.988Z,43.13
2018-07-06T16:45:04.267Z,42.13
2018-07-06T16:47:31.500Z,42.35
2018-07-06T16:49:58.835Z,41.96
2018-07-06T16:52:26.144Z,41.16
2018-07-06T16:54:53.498Z,40.82
2018-07-06T16:57:20.852Z,41.24
2018-07-06T16:59:48.323Z,40.83
2018-07-06T17:02:15.708Z,41.15
2018-07-06T17:04:43.111Z,41.26
2018-07-06T17:07:10.376Z,40.68
2018-07-06T17:09:37.681Z,40.90
2018-07-06T17:12:04.943Z,40.94
2018-07-06T17:14:32.232Z,39.65
2018-07-06T17:16:59.636Z,39.77
2018-07-06T17:19:27.089Z,40.10
2018-07-06T17:21:55.793Z,39.80
2018-07-06T17:24:23.275Z,40.59
2018-07-06T17:26:50.669Z,40.97
2018-07-06T17:29:19.183Z,41.59
2018-07-06T17:31:46.715Z,41.50
2018-07-06T17:34:14.268Z,40.77
2018-07-06T17:36:41.662Z,40.65
2018-07-06T17:39:09.116Z,40.34
2018-07-06T17:41:36.754Z,40.37
2018-07-06T17:44:04.220Z,40.52
2018-07-06T17:46:31.621Z,41.11
2018-07-06T17:48:59.137Z,41.58
2018-07-06T17:51:26.638Z,41.41
2018-07-06T17:53:54.033Z,41.15
2018-07-06T17:56:21.488Z,41.85
2018-07-06T17:58:48.756Z,41.89
2018-07-06T18:01:16.252Z,41.92
2018-07-06T18:03:43.502Z,41.86
2018-07-06T18:06:10.729Z,41.26
2018-07-06T18:08:38.152Z,41.93
2018-07-06T18:11:05.537Z,42.11
2018-07-06T18:13:32.907Z,41.47
2018-07-06T18:16:00.240Z,41.83
2018-07-06T18:18:27.570Z,41.61
2018-07-06T18:20:55.043Z,41.47
2018-07-06T18:23:23.922Z,42.29
2018-07-06T18:25:51.167Z,42.16
2018-07-06T18:28:19.020Z,42.14
2018-07-06T18:30:46.531Z,42.79
2018-07-06T18:33:14.036Z,42.95
2018-07-06T18:35:41.943Z,42.79
2018-07-06T18:38:10.038Z,43.30
2018-07-06T18:40:37.466Z,43.02
2018-07-06T18:43:05.161Z,43.41
2018-07-06T18:45:32.631Z,43.76
2018-07-06T18:47:59.897Z,44.26
2018-07-06T18:50:27.601Z,44.15
2018-07-06T18:52:54.976Z,44.56
2018-07-06T18:55:22.486Z,44.49
2018-07-06T18:57:51.033Z,45.19
2018-07-06T19:00:18.945Z,45.19
2018-07-06T19:02:48.394Z,45.03
2018-07-06T19:05:16.133Z,45.37
2018-07-06T19:07:44.774Z,45.79
2018-07-06T19:10:13.843Z,45.35
2018-07-06T19:12:41.689Z,46.00
2018-07-06T19:15:09.372Z,46.08
2018-07-06T19:17:39.332Z,46.17
2018-07-06T19:20:07.093Z,46.20
2018-07-06T19:22:34.775Z,45.75
2018-07-06T19:25:05.012Z,45.80
2018-07-06T19:27:32.480Z,46.27
2018-07-06T19:29:59.880Z,45.90
2018-07-06T19:32:27.348Z,45.34
2018-07-06T19:34:54.821Z,45.56
2018-07-06T19:37:22.761Z,45.50
2018-07-06T19:39:50.140Z,45.43
2018-07-06T19:42:17.575Z,45.07
2018-07-06T19:44:45.000Z,45.23
2018-07-06T19:47:12.395Z,44.85
2018-07-06T19:49:40.453Z,44.93
2018-07-06T19:52:07.808Z,44.89
2018-07-06T19:54:36.765Z,44.75
2018-07-06T19:57:04.946Z,45.31
2018-07-06T19:59:32.407Z,45.26
2018-07-06T20:01:59.764Z,45.28
2018-07-06T20:04:27.039Z,45.44
2018-07-06T20:06:54.426Z,45.10
2018-07-06T20:09:21.807Z,45.15
2018-07-06T20:11:49.935Z,45.62
2018-07-06T20:14:17.276Z,45.24
2018-07-06T20:16:45.457Z,45.52
2018-07-06T20:19:12.825Z,46.16
2018-07-06T20:21:40.177Z,45.93
2018-07-06T20:24:07.558Z,46.07
2018-07-06T20:26:34.830Z,46.02
2018-07-06T20:29:02.228Z,46.22
2018-07-06T20:31:29.587Z,46.51
2018-07-06T20:33:56.949Z,46.10
2018-07-06T20:36:24.279Z,46.19
2018-07-06T20:38:51.673Z,46.05
2018-07-06T20:41:18.929Z,46.32
2018-07-06T20:43:46.247Z,46.27
2018-07-06T20:46:13.686Z,46.66
2018-07-06T20:48:40.981Z,46.96
2018-07-06T20:51:08.291Z,46.66
2018-07-06T20:53:35.689Z,46.72
2018-07-06T20:56:02.979Z,46.97
2018-07-06T20:58:30.277Z,46.22
2018-07-06T21:00:58.369Z,46.16
2018-07-06T21:03:25.651Z,46.45
2018-07-06T21:05:53.083Z,46.87
2018-07-06T21:08:20.425Z,46.78
2018-07-06T21:10:47.704Z,46.77
2018-07-06T21:13:15.011Z,47.38
2018-07-06T21:15:43.984Z,47.23
2018-07-06T21:18:11.273Z,47.32
2018-07-06T21:20:38.624Z,48.87
2018-07-06T21:23:06.006Z,50.11
2018-07-06T21:25:34.965Z,50.49
2018-07-06T21:28:02.436Z,50.75
2018-07-06T21:30:29.834Z,50.11
2018-07-06T21:32:57.206Z,50.00
2018-07-06T21:35:24.867Z,49.72
2018-07-06T21:37:52.248Z,50.68
2018-07-06T21:40:19.774Z,51.32
2018-07-06T21:42:47.548Z,51.40
2018-07-06T21:45:14.928Z,51.01
2018-07-06T21:47:42.184Z,51.22
2018-07-06T21:50:09.955Z,51.41
2018-07-06T21:52:37.386Z,51.48
2018-07-06T21:55:04.739Z,51.89
2018-07-06T21:57:32.129Z,51.77
2018-07-06T21:59:59.482Z,51.76
2018-07-06T22:02:26.910Z,51.05
2018-07-06T22:04:54.282Z,52.64
2018-07-06T22:07:22.427Z,52.67
2018-07-06T22:09:49.767Z,52.67
2018-07-06T22:12:17.116Z,53.24
2018-07-06T22:14:44.486Z,52.67
2018-07-06T22:17:11.861Z,51.94
2018-07-06T22:19:39.251Z,52.94
2018-07-06T22:22:06.704Z,52.74
2018-07-06T22:24:34.039Z,52.94
2018-07-06T22:27:02.260Z,53.05
2018-07-06T22:29:29.622Z,52.70
2018-07-06T22:31:56.953Z,52.73
2018-07-06T22:34:24.398Z,53.48
2018-07-06T22:36:52.087Z,52.74
2018-07-06T22:39:19.516Z,53.13
2018-07-06T22:41:46.938Z,54.08
2018-07-06T22:44:14.258Z,53.55
2018-07-06T22:46:41.554Z,53.54
2018-07-06T22:49:08.937Z,53.04
2018-07-06T22:51:36.270Z,53.58
2018-07-06T22:54:03.650Z,54.03
2018-07-06T22:56:31.016Z,54.24
2018-07-06T22:58:58.494Z,55.58
2018-07-06T23:01:25.862Z,54.66
2018-07-06T23:03:53.173Z,54.43
2018-07-06T23:06:21.647Z,55.96
2018-07-06T23:08:49.107Z,55.97
2018-07-06T23:11:16.411Z,56.29
2018-07-06T23:13:43.798Z,57.04
2018-07-06T23:16:11.208Z,57.43
2018-07-06T23:18:38.737Z,57.42
2018-07-06T23:21:06.426Z,59.12
2018-07-06T23:23:33.703Z,59.34
2018-07-06T23:26:00.950Z,59.60
2018-07-06T23:28:28.202Z,60.79
2018-07-06T23:30:55.445Z,60.35
2018-07-06T23:33:22.661Z,59.35
2018-07-06T23:35:51.063Z,60.61
2018-07-06T23:38:18.385Z,60.71
2018-07-06T23:40:45.838Z,59.65
2018-07-06T23:43:13.075Z,60.05
2018-07-06T23:45:40.306Z,60.45
2018-07-06T23:48:07.542Z,59.71
2018-07-06T23:50:34.799Z,60.73
2018-07-06T23:53:02.069Z,60.46
2018-07-06T23:55:29.294Z,58.56
2018-07-06T23:57:56.546Z,58.58
